Terminal Aerodrome Forecast
Issued by NWS North Platte, NE

Home | Current Version | Previous Version | Text Only | Print | Product List | Glossary On
Versions: 1 2 3 4 5 6 7 8 9 10 11 12 13 14 15 16
000
FTUS43 KLBF 200520
TAFVTN
TAF
KVTN 200520Z 2006/2106 24008KT P6SM FEW250
     FM201700 27012KT P6SM BKN250
     FM202100 30013G19KT P6SM BKN200
     FM210000 30008KT P6SM BKN200=

USA.gov is the U.S. government's official web portal to all federal, state and local government web resources and services.